createdAt,value
2018-12-29T00:01:54.041Z,10.40
2018-12-29T00:04:56.819Z,11.70
2018-12-29T00:07:59.631Z,11.33
2018-12-29T00:11:02.417Z,10.00
2018-12-29T00:14:05.211Z,11.20
2018-12-29T00:17:07.994Z,9.77
2018-12-29T00:20:10.783Z,10.38
2018-12-29T00:23:13.623Z,10.93
2018-12-29T00:26:16.430Z,11.10
2018-12-29T00:29:20.770Z,11.53
2018-12-29T00:32:24.921Z,11.07
2018-12-29T00:35:27.701Z,12.30
2018-12-29T00:38:30.488Z,13.10
2018-12-29T00:41:33.280Z,13.00
2018-12-29T00:44:36.067Z,12.27
2018-12-29T00:47:38.851Z,13.23
2018-12-29T00:50:41.731Z,14.40
2018-12-29T00:53:44.520Z,14.67
2018-12-29T00:56:47.369Z,14.70
2018-12-29T00:59:50.151Z,14.63
2018-12-29T01:03:18.431Z,14.78
2018-12-29T01:06:21.219Z,15.73
2018-12-29T01:09:24.048Z,14.30
2018-12-29T01:12:26.937Z,18.53
2018-12-29T01:15:29.824Z,17.77
2018-12-29T01:18:32.608Z,19.10
2018-12-29T01:21:35.425Z,19.37
2018-12-29T01:24:38.223Z,18.90
2018-12-29T01:27:41.088Z,19.95
2018-12-29T01:30:43.942Z,21.23
2018-12-29T01:33:47.214Z,23.17
2018-12-29T01:36:50.102Z,21.13
2018-12-29T01:39:52.880Z,20.68
2018-12-29T01:42:55.781Z,22.20
2018-12-29T01:45:58.875Z,22.48
2018-12-29T01:49:21.252Z,22.53
2018-12-29T01:52:24.503Z,22.67
2018-12-29T01:55:27.743Z,24.27
2018-12-29T01:58:31.096Z,21.50
2018-12-29T02:01:34.329Z,23.13
2018-12-29T02:04:37.489Z,21.83
2018-12-29T02:07:40.853Z,23.07
2018-12-29T02:10:44.080Z,24.30
2018-12-29T02:13:47.409Z,24.73
2018-12-29T02:16:50.470Z,20.40
2018-12-29T02:19:53.816Z,23.10
2018-12-29T02:22:57.164Z,22.90
2018-12-29T02:26:00.396Z,24.20
2018-12-29T02:29:03.660Z,23.30
2018-12-29T02:32:08.232Z,23.67
2018-12-29T02:35:11.479Z,25.50
2018-12-29T02:38:14.814Z,24.65
2018-12-29T02:41:18.201Z,25.53
2018-12-29T02:44:21.524Z,23.83
2018-12-29T02:47:24.772Z,23.10
2018-12-29T02:50:28.000Z,23.20
2018-12-29T02:53:31.265Z,23.50
2018-12-29T02:56:34.612Z,20.83
2018-12-29T02:59:37.860Z,23.43
2018-12-29T03:02:41.085Z,22.40
2018-12-29T03:05:44.350Z,20.87
2018-12-29T03:08:47.685Z,22.93
2018-12-29T03:11:50.949Z,21.20
2018-12-29T03:14:54.241Z,21.05
2018-12-29T03:17:57.438Z,21.90
2018-12-29T03:21:00.638Z,21.27
2018-12-29T03:24:04.046Z,20.70
2018-12-29T03:27:07.639Z,20.47
2018-12-29T03:30:11.142Z,19.35
2018-12-29T03:33:14.357Z,21.93
2018-12-29T03:36:17.451Z,20.15
2018-12-29T03:39:21.241Z,21.63
2018-12-29T03:42:24.424Z,20.95
2018-12-29T03:45:27.626Z,22.47
2018-12-29T03:48:30.917Z,21.82
2018-12-29T03:51:34.118Z,20.82
2018-12-29T03:54:37.073Z,22.62
2018-12-29T03:57:40.308Z,22.47
2018-12-29T04:00:43.597Z,21.45
2018-12-29T04:03:46.798Z,24.87
2018-12-29T04:06:50.087Z,23.00
2018-12-29T04:09:53.594Z,22.10
2018-12-29T04:12:59.029Z,21.77
2018-12-29T04:16:02.245Z,22.87
2018-12-29T04:19:05.532Z,24.92
2018-12-29T04:22:08.728Z,22.62
2018-12-29T04:25:11.820Z,24.13
2018-12-29T04:28:15.017Z,24.00
2018-12-29T04:31:18.060Z,23.38
2018-12-29T04:34:21.299Z,25.40
2018-12-29T04:37:24.427Z,24.30
2018-12-29T04:40:27.570Z,25.77
2018-12-29T04:43:30.635Z,23.75
2018-12-29T04:46:33.874Z,22.97
2018-12-29T04:49:36.923Z,25.47
2018-12-29T04:52:40.054Z,24.60
2018-12-29T04:55:43.107Z,25.00
2018-12-29T04:58:46.371Z,26.73
2018-12-29T05:01:49.496Z,26.35
2018-12-29T05:04:52.623Z,25.27
2018-12-29T05:07:55.987Z,26.17
2018-12-29T05:10:59.232Z,24.70
2018-12-29T05:14:02.374Z,27.43
2018-12-29T05:17:05.603Z,24.63
2018-12-29T05:20:08.767Z,26.82
2018-12-29T05:23:11.900Z,25.02
2018-12-29T05:26:14.955Z,25.97
2018-12-29T05:29:18.079Z,26.60
2018-12-29T05:32:21.139Z,25.73
2018-12-29T05:35:24.491Z,24.77
2018-12-29T05:38:27.531Z,28.23
2018-12-29T05:41:31.458Z,25.93
2018-12-29T05:44:34.636Z,26.57
2018-12-29T05:47:37.796Z,27.50
2018-12-29T05:50:40.926Z,27.30
2018-12-29T05:53:44.171Z,26.97
2018-12-29T05:56:47.210Z,28.03
2018-12-29T05:59:50.344Z,28.83
2018-12-29T06:02:53.503Z,26.07
2018-12-29T06:05:56.606Z,28.87
2018-12-29T06:08:59.787Z,28.33
2018-12-29T06:12:02.988Z,28.03
2018-12-29T06:15:06.075Z,28.30
2018-12-29T06:18:09.177Z,27.93
2018-12-29T06:21:12.258Z,26.82
2018-12-29T06:24:15.460Z,30.60
2018-12-29T06:27:18.550Z,27.93
2018-12-29T06:30:23.453Z,28.00
2018-12-29T06:33:26.575Z,28.07
2018-12-29T06:36:29.671Z,29.40
2018-12-29T06:39:32.763Z,27.80
2018-12-29T06:42:35.859Z,26.70
2018-12-29T06:45:39.051Z,27.30
2018-12-29T06:48:42.248Z,26.93
2018-12-29T06:51:45.499Z,22.90
2018-12-29T06:54:48.739Z,27.37
2018-12-29T06:57:51.831Z,27.33
2018-12-29T07:00:55.130Z,25.90
2018-12-29T07:03:58.223Z,26.47
2018-12-29T07:07:01.419Z,27.57
2018-12-29T07:10:04.615Z,27.03
2018-12-29T07:13:07.709Z,27.10
2018-12-29T07:16:11.103Z,26.60
2018-12-29T07:19:14.199Z,26.20
2018-12-29T07:22:17.287Z,26.03
2018-12-29T07:25:20.487Z,26.23
2018-12-29T07:28:23.638Z,26.47
2018-12-29T07:31:26.775Z,23.77
2018-12-29T07:34:29.862Z,25.63
2018-12-29T07:37:33.128Z,27.63
2018-12-29T07:40:36.255Z,24.60
2018-12-29T07:43:39.451Z,25.77
2018-12-29T07:46:49.423Z,26.73
2018-12-29T07:49:47.479Z,24.97
2018-12-29T07:52:50.673Z,26.60
2018-12-29T07:55:53.777Z,29.00
2018-12-29T07:58:56.962Z,27.80
2018-12-29T08:02:00.066Z,28.00
2018-12-29T08:05:03.350Z,29.27
2018-12-29T08:08:06.550Z,27.50
2018-12-29T08:11:09.535Z,28.60
2018-12-29T08:14:12.766Z,29.83
2018-12-29T08:17:17.359Z,26.07
2018-12-29T08:20:20.703Z,29.10
2018-12-29T08:23:23.756Z,28.53
2018-12-29T08:26:27.430Z,27.17
2018-12-29T08:29:30.559Z,25.50
2018-12-29T08:32:33.792Z,24.40
2018-12-29T08:35:36.940Z,23.47
2018-12-29T08:38:40.067Z,21.77
2018-12-29T08:41:43.127Z,23.87
2018-12-29T08:44:46.355Z,23.70
2018-12-29T08:47:49.416Z,23.73
2018-12-29T08:50:52.745Z,22.57
2018-12-29T08:53:55.805Z,22.53
2018-12-29T08:56:58.927Z,22.67
2018-12-29T09:00:02.087Z,21.57
2018-12-29T09:03:05.323Z,21.70
2018-12-29T09:06:08.378Z,26.07
2018-12-29T09:09:11.515Z,25.20
2018-12-29T09:12:14.570Z,25.77
2018-12-29T09:15:17.751Z,27.07
2018-12-29T09:18:20.855Z,25.83
2018-12-29T09:21:24.194Z,27.47
2018-12-29T09:24:27.245Z,23.50
2018-12-29T09:27:30.581Z,24.70
2018-12-29T09:30:33.895Z,24.90
2018-12-29T09:33:37.494Z,25.47
2018-12-29T09:36:40.534Z,21.07
2018-12-29T09:39:43.663Z,21.20
2018-12-29T09:42:46.823Z,23.17
2018-12-29T09:45:50.063Z,23.13
2018-12-29T09:48:53.211Z,22.37
2018-12-29T09:51:57.270Z,19.47
2018-12-29T09:55:00.432Z,20.70
2018-12-29T09:58:03.654Z,20.50
2018-12-29T10:01:06.815Z,20.80
2018-12-29T10:04:10.047Z,20.23
2018-12-29T10:07:13.303Z,20.72
2018-12-29T10:10:16.438Z,20.87
2018-12-29T10:13:19.495Z,20.90
2018-12-29T10:16:22.619Z,20.27
2018-12-29T10:19:25.679Z,22.37
2018-12-29T10:22:28.818Z,22.00
2018-12-29T10:25:31.863Z,22.80
2018-12-29T10:28:35.054Z,22.00
2018-12-29T10:31:37.854Z,20.35
2018-12-29T10:34:40.947Z,21.97
2018-12-29T10:37:44.046Z,23.50
2018-12-29T10:40:47.135Z,22.10
2018-12-29T10:43:50.234Z,23.07
2018-12-29T10:46:53.323Z,24.77
2018-12-29T10:49:56.411Z,22.67
2018-12-29T10:52:59.624Z,23.93
2018-12-29T10:56:03.719Z,24.13
2018-12-29T10:59:06.823Z,24.73
2018-12-29T11:02:11.031Z,17.77
2018-12-29T11:05:14.251Z,21.90
2018-12-29T11:08:17.315Z,22.30
2018-12-29T11:11:20.420Z,22.93
2018-12-29T11:14:23.511Z,23.97
2018-12-29T11:17:26.704Z,23.27
2018-12-29T11:20:29.901Z,22.27
2018-12-29T11:23:32.993Z,21.23
2018-12-29T11:26:36.078Z,21.77
2018-12-29T11:29:39.171Z,22.23
2018-12-29T11:32:42.263Z,23.30
2018-12-29T11:35:45.370Z,23.63
2018-12-29T11:38:48.451Z,22.42
2018-12-29T11:41:51.551Z,23.73
2018-12-29T11:44:54.735Z,20.50
2018-12-29T11:47:57.872Z,24.30
2018-12-29T11:51:00.922Z,23.97
2018-12-29T11:54:04.354Z,25.50
2018-12-29T11:57:07.423Z,25.13
2018-12-29T12:00:10.751Z,25.52
2018-12-29T12:03:13.914Z,24.83
2018-12-29T12:06:17.039Z,23.50
2018-12-29T12:09:20.202Z,23.57
2018-12-29T12:12:23.419Z,20.50
2018-12-29T12:15:27.003Z,20.40
2018-12-29T12:18:30.143Z,21.10
2018-12-29T12:21:33.183Z,19.67
2018-12-29T12:24:36.422Z,18.73
2018-12-29T12:27:39.467Z,23.23
2018-12-29T12:30:42.693Z,22.22
2018-12-29T12:33:45.962Z,21.87
2018-12-29T12:36:49.316Z,22.23
2018-12-29T12:39:52.351Z,21.33
2018-12-29T12:42:55.603Z,22.03
2018-12-29T12:45:58.855Z,19.97
2018-12-29T12:49:02.217Z,17.73
2018-12-29T12:52:05.338Z,18.93
2018-12-29T12:55:08.883Z,19.47
2018-12-29T12:58:12.137Z,18.90
2018-12-29T13:01:15.571Z,18.40
2018-12-29T13:04:18.838Z,19.62
2018-12-29T13:07:21.975Z,19.53
2018-12-29T13:10:25.226Z,18.30
2018-12-29T13:13:28.019Z,19.90
2018-12-29T13:16:31.718Z,22.30
2018-12-29T13:19:34.511Z,19.35
2018-12-29T13:22:37.822Z,20.90
2018-12-29T13:25:40.641Z,21.20
2018-12-29T13:28:45.809Z,19.32
2018-12-29T13:31:48.828Z,20.23
2018-12-29T13:34:52.119Z,20.07
2018-12-29T13:37:55.623Z,19.87
2018-12-29T13:40:58.410Z,21.33
2018-12-29T13:44:01.244Z,18.53
2018-12-29T13:47:04.587Z,19.87
2018-12-29T13:50:07.452Z,20.30
2018-12-29T13:53:10.231Z,20.47
2018-12-29T13:56:13.027Z,18.53
2018-12-29T13:59:16.266Z,20.33
2018-12-29T14:02:19.082Z,18.57
2018-12-29T14:05:21.906Z,20.93
2018-12-29T14:08:25.115Z,22.07
2018-12-29T14:11:27.987Z,20.75
2018-12-29T14:14:31.298Z,20.73
2018-12-29T14:17:34.088Z,21.00
2018-12-29T14:20:37.178Z,21.43
2018-12-29T14:23:40.072Z,20.17
2018-12-29T14:26:42.867Z,22.13
2018-12-29T14:29:45.661Z,20.80
2018-12-29T14:32:48.447Z,22.47
2018-12-29T14:35:51.228Z,20.63
2018-12-29T14:38:54.047Z,21.30
2018-12-29T14:41:57.633Z,22.63
2018-12-29T14:45:00.437Z,23.03
2018-12-29T14:48:03.255Z,21.33
2018-12-29T14:51:06.108Z,23.93
2018-12-29T14:54:09.255Z,22.63
2018-12-29T14:57:12.351Z,22.90
2018-12-29T15:00:15.231Z,20.70
2018-12-29T15:03:18.383Z,23.97
2018-12-29T15:06:21.180Z,24.03
2018-12-29T15:09:25.078Z,21.73
2018-12-29T15:12:27.860Z,23.70
2018-12-29T15:15:31.075Z,22.90
2018-12-29T15:18:34.202Z,22.70
2018-12-29T15:21:37.999Z,24.07
2018-12-29T15:24:40.985Z,22.53
2018-12-29T15:27:44.118Z,23.63
2018-12-29T15:30:47.391Z,22.97
2018-12-29T15:33:50.845Z,23.63
2018-12-29T15:36:54.085Z,21.73
2018-12-29T15:39:57.619Z,23.57
2018-12-29T15:43:00.995Z,22.33
2018-12-29T15:46:04.433Z,21.45
2018-12-29T15:49:07.887Z,22.93
2018-12-29T15:52:11.198Z,21.57
2018-12-29T15:55:14.583Z,22.17
2018-12-29T15:58:17.941Z,22.93
2018-12-29T16:01:21.085Z,22.00
2018-12-29T16:04:25.227Z,20.60
2018-12-29T16:07:30.435Z,20.30
2018-12-29T16:10:33.571Z,22.58
2018-12-29T16:13:36.507Z,18.83
2018-12-29T16:16:39.438Z,21.87
2018-12-29T16:19:42.289Z,20.13
2018-12-29T16:22:45.363Z,23.73
2018-12-29T16:25:48.143Z,18.70
2018-12-29T16:28:51.149Z,22.07
2018-12-29T16:31:54.491Z,19.57
2018-12-29T16:34:57.694Z,20.60
2018-12-29T16:38:00.989Z,19.73
2018-12-29T16:41:04.078Z,21.13
2018-12-29T16:44:07.378Z,21.10
2018-12-29T16:47:10.983Z,22.07
2018-12-29T16:50:14.679Z,21.45
2018-12-29T16:53:18.194Z,21.82
2018-12-29T16:56:21.567Z,20.02
2018-12-29T16:59:24.791Z,19.90
2018-12-29T17:02:28.130Z,19.90
2018-12-29T17:05:31.275Z,18.20
2018-12-29T17:08:34.915Z,21.48
2018-12-29T17:11:37.971Z,20.43
2018-12-29T17:14:41.207Z,19.20
2018-12-29T17:17:44.360Z,17.53
2018-12-29T17:20:47.599Z,18.67
2018-12-29T17:23:50.754Z,18.57
2018-12-29T17:26:53.846Z,18.73
2018-12-29T17:29:57.043Z,17.80
2018-12-29T17:33:00.134Z,19.03
2018-12-29T17:36:03.681Z,15.60
2018-12-29T17:39:07.121Z,16.02
2018-12-29T17:42:10.235Z,17.07
2018-12-29T17:45:13.626Z,16.20
2018-12-29T17:48:16.826Z,15.03
2018-12-29T17:51:19.919Z,14.80
2018-12-29T17:54:23.124Z,14.73
2018-12-29T17:57:26.204Z,15.70
2018-12-29T18:00:30.254Z,13.93
2018-12-29T18:03:33.419Z,11.33
2018-12-29T18:06:36.615Z,12.23
2018-12-29T18:09:39.702Z,15.30
2018-12-29T18:12:42.798Z,14.27
2018-12-29T18:15:45.991Z,12.10
2018-12-29T18:18:49.088Z,13.80
2018-12-29T18:21:52.378Z,13.58
2018-12-29T18:24:55.582Z,12.43
2018-12-29T18:27:58.675Z,13.27
2018-12-29T18:31:02.274Z,12.87
2018-12-29T18:34:05.367Z,14.43
2018-12-29T18:37:08.496Z,14.53
2018-12-29T18:40:11.559Z,13.03
2018-12-29T18:43:15.102Z,15.30
2018-12-29T18:46:18.355Z,13.58
2018-12-29T18:49:21.575Z,15.67
2018-12-29T18:52:24.640Z,15.07
2018-12-29T18:55:27.775Z,15.00
2018-12-29T18:58:32.576Z,14.63
2018-12-29T19:01:35.698Z,15.97
2018-12-29T19:04:38.750Z,15.53
2018-12-29T19:07:42.099Z,10.53
2018-12-29T19:10:45.446Z,14.90
2018-12-29T19:13:48.926Z,14.87
2018-12-29T19:16:52.567Z,14.73
2018-12-29T19:19:56.098Z,15.63
2018-12-29T19:22:59.151Z,15.00
2018-12-29T19:26:02.381Z,14.73
2018-12-29T19:29:05.642Z,14.97
2018-12-29T19:32:08.872Z,12.37
2018-12-29T19:35:12.452Z,10.27
2018-12-29T19:38:15.494Z,13.70
2018-12-29T19:41:18.938Z,14.10
2018-12-29T19:44:22.691Z,8.97
2018-12-29T19:47:26.243Z,11.13
2018-12-29T19:50:29.788Z,10.97
2018-12-29T19:53:33.047Z,12.10
2018-12-29T19:56:36.279Z,11.20
2018-12-29T19:59:39.642Z,12.17
2018-12-29T20:02:42.771Z,12.17
2018-12-29T20:05:46.134Z,13.27
2018-12-29T20:08:50.259Z,12.17
2018-12-29T20:11:53.343Z,13.10
2018-12-29T20:14:56.540Z,13.60
2018-12-29T20:17:59.783Z,13.03
2018-12-29T20:21:02.842Z,12.27
2018-12-29T20:24:07.094Z,12.83
2018-12-29T20:27:10.655Z,13.70
2018-12-29T20:30:13.887Z,13.90
2018-12-29T20:33:17.039Z,14.07
2018-12-29T20:36:20.139Z,14.27
2018-12-29T20:39:23.227Z,13.23
2018-12-29T20:42:26.318Z,12.60
2018-12-29T20:45:29.510Z,15.07
2018-12-29T20:48:32.616Z,13.40
2018-12-29T20:51:37.086Z,12.67
2018-12-29T20:54:40.231Z,12.83
2018-12-29T20:57:44.860Z,14.47
2018-12-29T21:00:47.948Z,14.20
2018-12-29T21:03:51.051Z,15.13
2018-12-29T21:06:54.542Z,15.97
2018-12-29T21:09:57.743Z,15.87
2018-12-29T21:13:01.063Z,16.17
2018-12-29T21:16:04.130Z,13.83
2018-12-29T21:19:07.222Z,15.33
2018-12-29T21:22:10.315Z,15.93
2018-12-29T21:25:13.511Z,13.93
2018-12-29T21:28:16.616Z,15.17
2018-12-29T21:31:19.902Z,14.80
2018-12-29T21:34:24.020Z,9.10
2018-12-29T21:37:27.210Z,14.43
2018-12-29T21:40:30.306Z,14.00
2018-12-29T21:43:33.394Z,14.27
2018-12-29T21:46:36.594Z,7.73
2018-12-29T21:49:39.711Z,14.47
2018-12-29T21:52:42.983Z,16.17
2018-12-29T21:55:46.691Z,16.57
2018-12-29T21:58:49.891Z,17.67
2018-12-29T22:01:52.979Z,16.57
2018-12-29T22:04:56.105Z,13.87
2018-12-29T22:07:59.163Z,18.07
2018-12-29T22:11:02.391Z,11.97
2018-12-29T22:14:05.736Z,17.67
2018-12-29T22:17:08.987Z,19.67
2018-12-29T22:20:12.045Z,17.87
2018-12-29T22:23:15.274Z,15.57
2018-12-29T22:26:18.434Z,17.43
2018-12-29T22:29:21.563Z,19.37
2018-12-29T22:32:24.618Z,18.63
2018-12-29T22:35:27.407Z,18.30
2018-12-29T22:38:30.698Z,19.40
2018-12-29T22:41:33.922Z,15.27
2018-12-29T22:44:37.559Z,17.23
2018-12-29T22:47:40.616Z,18.70
2018-12-29T22:50:43.822Z,10.07
2018-12-29T22:53:46.903Z,14.47
2018-12-29T22:56:50.029Z,16.97
2018-12-29T22:59:53.104Z,15.90
2018-12-29T23:02:56.312Z,17.43
2018-12-29T23:05:59.799Z,14.33
2018-12-29T23:09:04.983Z,16.10
2018-12-29T23:12:08.320Z,20.23
2018-12-29T23:15:12.442Z,17.03
2018-12-29T23:18:15.674Z,13.30
2018-12-29T23:21:19.243Z,16.17
2018-12-29T23:24:22.368Z,16.10
2018-12-29T23:27:25.603Z,16.47
2018-12-29T23:30:28.941Z,18.50
2018-12-29T23:33:32.015Z,15.03
2018-12-29T23:36:35.354Z,15.13
2018-12-29T23:39:38.751Z,15.40
2018-12-29T23:42:41.811Z,13.40
2018-12-29T23:45:45.147Z,12.70
2018-12-29T23:48:48.322Z,15.73
2018-12-29T23:51:51.607Z,13.17
2018-12-29T23:54:54.895Z,12.53
2018-12-29T23:57:58.559Z,12.60
